Kary, South Dakota
Current Conditions -  °F | °C
As of 11:53 PM on Saturday 20 Dec 2014 (Local Time) from KPIR Reporting Station
Overcast Overcast  
Wind Chill: 17°   Ceiling: 11000
Heat Index: 25°   Visibility: 7mi
Dew Point: 22°   Wind: 7mph
Humidity: 88%   Direction: 160°SSE
Pressure: 29.83"   Gusts: NA
Location:  43.9557°N, 100.703°W
Report Text: KPIR 210553Z AUTO 16006KT 7SM OVC110 M04/M06 A2983 RMK AO2 SLP121 I6000 T10391056 11039 21083 410111111 56015
Loading
Personal Weather Stations






























Interactive Weather Map New forecast layout! Learn more

10-Day Weather Forecast

Advertisements
Track Severe Weather on mobile